Terminal Aerodrome Forecast
Issued by NWS

Home | Current Version | Previous Version | Text Only | Print | Product List | Glossary On
Versions: 1 2 3 4 5 6 7 8 9 10 11 12 13 14
229
FTUS45 KABQ 270033 AAA
TAFLVS
TAF AMD
KLVS 270033Z 2701/2724 10008KT P6SM VCSH SCT070 BKN100
     FM270300 07008KT P6SM VCSH BKN070
      TEMPO 2706/2709 -SHRA OVC050
     FM270900 02012G18KT P6SM -RA OVC040
     FM271200 05013KT 4SM -RA BR OVC025
     FM271800 09008KT 6SM -RA OVC035
      AMD NOT SKED=

USA.gov is the U.S. government's official web portal to all federal, state and local government web resources and services.